Time;durP1;ratioP1;P1;durP2;ratioP2;P2;SDS_P1;SDS_P2;PMS_P1;PMS_P2;Temp;Humidity;BMP_temperature;BMP_pressure;BME280_temperature;BME280_humidity;BME280_pressure;Samples;Min_cycle;Max_cycle;Signal;HPM_P1;HPM_P2
2021/05/17 00:02:19;;;;;;;0.65;0.50;;;;;;;7.25;90.81;94462.31;5013178;28;20054;-71
2021/05/17 00:04:45;;;;;;;0.40;0.40;;;;;;;7.24;90.18;94460.75;5005260;28;20049;-71
2021/05/17 00:07:11;;;;;;;0.43;0.43;;;;;;;7.18;91.17;94469.69;5011823;28;20041;-71
2021/05/17 00:09:37;;;;;;;1.10;0.55;;;;;;;7.19;90.84;94473.88;5001272;28;20038;-71
2021/05/17 00:12:08;;;;;;;0.57;0.57;;;;;;;7.20;90.25;94475.44;5019712;28;20058;-71
2021/05/17 00:14:34;;;;;;;1.60;0.52;;;;;;;7.16;90.11;94480.44;5013521;28;20053;-71
2021/05/17 00:17:00;;;;;;;1.75;0.40;;;;;;;7.18;90.17;94488.00;5013245;28;20116;-71
2021/05/17 00:19:25;;;;;;;0.52;0.38;;;;;;;7.20;89.22;94480.69;5021210;28;20116;-71
2021/05/17 00:21:52;;;;;;;0.43;0.43;;;;;;;7.16;89.55;94485.66;5012558;28;20042;-71
2021/05/17 00:24:19;;;;;;;0.57;0.30;;;;;;;7.16;90.63;94497.97;5011805;28;20104;-71
2021/05/17 00:26:45;;;;;;;0.70;0.40;;;;;;;7.11;91.22;94489.09;5007432;28;20034;-71
2021/05/17 00:29:11;;;;;;;0.50;0.50;;;;;;;7.05;91.35;94503.28;5013012;28;20053;-71
2021/05/17 00:31:39;;;;;;;0.82;0.45;;;;;;;7.02;91.58;94490.72;5017340;28;20044;-71
2021/05/17 00:34:06;;;;;;;0.50;0.50;;;;;;;6.94;92.05;94493.94;4996560;28;20049;-71
2021/05/17 00:36:32;;;;;;;0.40;0.40;;;;;;;6.87;92.84;94503.91;5016611;28;20037;-71
2021/05/17 00:38:59;;;;;;;0.60;0.57;;;;;;;6.83;93.16;94505.50;5011531;28;20135;-71
2021/05/17 00:41:29;;;;;;;0.45;0.35;;;;;;;6.84;93.33;94504.41;4998163;28;20424;-71
2021/05/17 00:43:55;;;;;;;2.58;0.70;;;;;;;6.83;93.40;94498.41;5011109;28;20058;-71
2021/05/17 00:46:22;;;;;;;0.75;0.60;;;;;;;6.83;92.50;94502.88;5015550;28;20509;-71
2021/05/17 00:48:49;;;;;;;1.33;0.50;;;;;;;6.80;92.68;94503.41;5000071;28;20488;-71
2021/05/17 00:51:15;;;;;;;0.40;0.40;;;;;;;6.78;93.01;94500.28;4998014;28;20042;-71
2021/05/17 00:53:41;;;;;;;0.50;0.50;;;;;;;6.80;93.04;94503.41;5005788;28;20424;-72
2021/05/17 00:56:08;;;;;;;0.60;0.60;;;;;;;6.80;93.11;94503.41;5013811;28;20507;-72
2021/05/17 00:58:34;;;;;;;1.02;0.88;;;;;;;6.78;93.31;94495.03;5018118;28;20049;-72
2021/05/17 01:01:01;;;;;;;0.70;0.47;;;;;;;6.88;92.43;94510.69;5018215;28;20038;-71
2021/05/17 01:03:26;;;;;;;1.90;0.75;;;;;;;6.85;92.38;94501.56;5009419;28;20038;-71
2021/05/17 01:05:52;;;;;;;0.47;0.47;;;;;;;6.80;92.50;94516.50;5017695;28;20038;-71
2021/05/17 01:08:31;;;;;;;0.68;0.50;;;;;;;6.93;92.15;94518.50;5009393;28;20045;-71
2021/05/17 01:11:01;;;;;;;0.70;0.70;;;;;;;6.99;91.94;94521.88;5010752;28;20046;-71
2021/05/17 01:13:27;;;;;;;0.60;0.60;;;;;;;6.97;91.77;94524.78;5001582;28;20050;-71
2021/05/17 01:15:54;;;;;;;1.13;0.75;;;;;;;7.03;91.68;94528.13;5009235;28;20107;-71
2021/05/17 01:18:20;;;;;;;1.73;0.90;;;;;;;7.04;91.56;94530.47;5014079;28;20065;-71
2021/05/17 01:20:48;;;;;;;1.65;0.77;;;;;;;7.14;90.53;94534.09;5011351;28;20061;-71
2021/05/17 01:25:53;;;;;;;0.87;0.70;;;;;;;7.19;90.61;94526.97;5019596;28;20046;-71
2021/05/17 01:28:22;;;;;;;0.82;0.50;;;;;;;7.26;90.63;94531.91;5010368;28;20397;-72
2021/05/17 01:30:53;;;;;;;1.50;0.80;;;;;;;7.30;90.33;94530.31;5010971;28;20256;-71
2021/05/17 01:33:20;;;;;;;1.98;0.88;;;;;;;7.33;89.27;94532.41;5000533;28;20511;-71
2021/05/17 01:35:49;;;;;;;1.42;0.93;;;;;;;7.34;89.79;94533.97;5008437;28;20112;-71
2021/05/17 01:38:18;;;;;;;0.82;0.70;;;;;;;7.36;89.89;94534.47;5013148;28;20038;-71
2021/05/17 01:40:46;;;;;;;0.60;0.60;;;;;;;7.42;88.81;94538.59;5011483;28;20072;-71
2021/05/17 01:43:14;;;;;;;2.50;1.40;;;;;;;7.50;88.99;94536.47;5014324;28;20038;-71
2021/05/17 01:45:40;;;;;;;0.82;0.63;;;;;;;7.47;89.36;94537.81;5012142;28;20403;-72
2021/05/17 01:48:07;;;;;;;2.70;0.95;;;;;;;7.48;88.88;94533.34;5018514;28;20484;-71
2021/05/17 01:50:33;;;;;;;1.63;0.88;;;;;;;7.55;88.01;94539.81;5010885;28;20057;-71
2021/05/17 01:53:00;;;;;;;1.17;0.75;;;;;;;7.66;87.31;94543.16;5010027;28;20136;-71
2021/05/17 01:55:26;;;;;;;1.33;0.77;;;;;;;7.66;87.63;94530.06;5013855;28;20553;-71
2021/05/17 01:58:13;;;;;;;1.85;0.80;;;;;;;7.68;87.42;94532.41;5013106;28;20054;-71
2021/05/17 02:00:41;;;;;;;1.77;0.90;;;;;;;7.69;87.08;94529.50;5001605;28;20111;-71
2021/05/17 02:03:09;;;;;;;1.55;1.00;;;;;;;7.66;87.30;94534.50;5006741;28;20549;-71
2021/05/17 02:05:35;;;;;;;1.17;0.98;;;;;;;7.63;87.92;94535.84;5016323;28;20046;-71
2021/05/17 02:08:02;;;;;;;1.85;1.02;;;;;;;7.68;87.62;94527.94;5008437;28;20035;-71
2021/05/17 02:10:28;;;;;;;2.10;1.10;;;;;;;7.66;88.25;94530.06;5019074;28;20046;-71
2021/05/17 02:12:57;;;;;;;2.55;1.00;;;;;;;7.67;87.92;94531.63;5023689;28;20046;-71
2021/05/17 02:15:23;;;;;;;1.25;1.02;;;;;;;7.73;87.53;94535.78;5010369;28;20108;-71
2021/05/17 02:18:09;;;;;;;0.88;0.82;;;;;;;7.73;88.10;94535.78;5016733;28;20116;-71
2021/05/17 02:20:37;;;;;;;1.02;0.80;;;;;;;7.71;87.86;94535.25;5009420;28;20515;-71
2021/05/17 02:23:08;;;;;;;3.03;1.20;;;;;;;7.71;87.83;94529.25;5017668;28;20046;-71
2021/05/17 02:25:34;;;;;;;1.00;0.90;;;;;;;7.66;88.41;94530.06;5005463;28;20049;-71
2021/05/17 02:28:00;;;;;;;0.75;0.65;;;;;;;7.62;88.33;94534.28;5010852;28;20101;-71
2021/05/17 02:30:26;;;;;;;1.27;0.95;;;;;;;7.55;88.87;94533.81;5009288;28;20400;-71
2021/05/17 02:32:53;;;;;;;2.83;0.95;;;;;;;7.56;88.33;94540.63;5007676;28;20049;-71
2021/05/17 02:35:21;;;;;;;1.70;0.82;;;;;;;7.56;88.04;94540.63;5017115;28;20049;-71
2021/05/17 02:37:50;;;;;;;1.30;0.95;;;;;;;7.46;88.86;94542.25;5017466;28;20112;-71
2021/05/17 02:40:17;;;;;;;0.85;0.60;;;;;;;7.52;87.74;94539.59;5006620;28;20404;-71
2021/05/17 02:42:45;;;;;;;1.15;0.75;;;;;;;7.55;88.00;94539.81;5009922;28;20042;-71
2021/05/17 02:45:12;;;;;;;1.65;0.55;;;;;;;7.52;87.08;94539.59;5009297;28;20046;-71
2021/05/17 02:47:38;;;;;;;1.30;0.80;;;;;;;7.48;87.68;94554.28;5004883;28;20128;-71
2021/05/17 02:50:06;;;;;;;2.65;1.00;;;;;;;7.37;87.92;94554.38;4999426;28;20045;-71
2021/05/17 02:52:33;;;;;;;1.17;0.80;;;;;;;7.34;87.42;94565.38;5017674;28;20399;-71
2021/05/17 02:55:13;;;;;;;0.98;0.57;;;;;;;7.27;88.69;94554.44;5012262;28;20495;-72
2021/05/17 02:57:46;;;;;;;1.27;0.60;;;;;;;7.29;86.92;94562.78;5016487;28;20037;-71
2021/05/17 03:00:18;;;;;;;1.85;0.70;;;;;;;7.27;87.67;94575.38;4995403;28;20042;-71
2021/05/17 03:02:56;;;;;;;1.30;0.60;;;;;;;7.19;87.43;94583.78;5008644;28;20046;-72
2021/05/17 03:05:22;;;;;;;2.35;0.70;;;;;;;7.23;86.59;94576.97;5000793;28;20456;-71
2021/05/17 03:07:58;;;;;;;0.45;0.45;;;;;;;7.26;87.60;94584.25;5003220;28;20492;-71
2021/05/17 03:10:26;;;;;;;1.52;0.63;;;;;;;7.28;87.57;94577.72;5007848;28;20050;-71
2021/05/17 03:12:54;;;;;;;0.73;0.73;;;;;;;7.24;88.44;94581.13;5017366;28;20057;-71
2021/05/17 03:15:22;;;;;;;0.50;0.50;;;;;;;7.33;86.10;94582.13;5014808;28;20543;-72
2021/05/17 03:17:47;;;;;;;2.25;0.80;;;;;;;7.42;86.80;94588.34;5001297;28;20041;-71
2021/05/17 03:20:13;;;;;;;0.55;0.55;;;;;;;7.42;86.48;94596.19;5009998;28;20112;-72
2021/05/17 03:22:39;;;;;;;0.90;0.60;;;;;;;7.50;84.87;94591.44;5009544;28;20415;-72
2021/05/17 03:25:07;;;;;;;0.60;0.50;;;;;;;7.48;86.14;94601.41;5009887;28;20042;-72
2021/05/17 03:27:33;;;;;;;1.45;0.65;;;;;;;7.49;85.66;94600.38;4999305;28;20034;-71
2021/05/17 03:29:58;;;;;;;1.83;0.80;;;;;;;7.49;85.18;94609.00;5010453;28;20089;-71
2021/05/17 03:32:25;;;;;;;0.85;0.50;;;;;;;7.44;85.91;94607.19;5009477;28;20046;-71
2021/05/17 03:34:51;;;;;;;0.45;0.43;;;;;;;7.50;84.65;94599.28;5010280;28;20042;-72
2021/05/17 03:37:17;;;;;;;1.65;0.77;;;;;;;7.50;84.36;94599.28;5012960;28;20070;-71
2021/05/17 03:39:44;;;;;;;1.63;0.80;;;;;;;7.49;85.10;94592.50;5005306;28;20077;-72
2021/05/17 03:42:10;;;;;;;1.33;0.55;;;;;;;7.45;85.72;94597.50;5013209;28;20492;-72
2021/05/17 03:44:36;;;;;;;1.88;0.80;;;;;;;7.45;85.45;94597.50;5013770;28;20048;-72
2021/05/17 03:47:01;;;;;;;1.27;0.70;;;;;;;7.38;85.31;94603.00;5003675;28;20069;-72
2021/05/17 03:49:27;;;;;;;1.25;0.88;;;;;;;7.38;86.18;94597.00;5012562;28;20419;-72
2021/05/17 03:51:52;;;;;;;0.98;0.80;;;;;;;7.36;86.45;94602.53;5012114;28;20038;-72
2021/05/17 03:54:18;;;;;;;1.23;0.50;;;;;;;7.34;85.55;94598.59;5012506;28;20070;-72
2021/05/17 03:56:44;;;;;;;0.52;0.50;;;;;;;7.38;85.95;94605.63;5005953;28;20041;-72
2021/05/17 03:59:14;;;;;;;0.52;0.40;;;;;;;7.28;85.88;94613.53;5012388;28;20510;-72
2021/05/17 04:01:39;;;;;;;0.75;0.50;;;;;;;7.33;85.67;94616.16;5013031;28;20387;-72
2021/05/17 04:04:05;;;;;;;2.78;0.90;;;;;;;7.38;85.85;94617.94;5009532;28;20091;-72
2021/05/17 04:14:30;;;;;;;2.10;0.70;;;;;;;7.42;85.87;94630.22;5012299;28;20042;-72
2021/05/17 04:16:56;;;;;;;0.82;0.52;;;;;;;7.36;85.87;94626.06;5003212;28;20303;-72
2021/05/17 04:19:26;;;;;;;0.98;0.68;;;;;;;7.32;86.33;94640.75;5008085;28;20057;-71
2021/05/17 04:21:51;;;;;;;2.70;0.77;;;;;;;7.34;85.08;94638.66;5012564;28;20554;-72
2021/05/17 04:24:17;;;;;;;1.20;0.60;;;;;;;7.35;85.54;94642.81;5011836;28;20042;-72
2021/05/17 04:26:43;;;;;;;1.52;0.80;;;;;;;7.43;84.42;94642.25;5013945;28;20054;-72
2021/05/17 04:29:08;;;;;;;1.25;0.70;;;;;;;7.51;84.41;94643.53;5005183;28;20609;-71
2021/05/17 04:31:34;;;;;;;1.35;0.82;;;;;;;7.49;84.51;94650.09;5012776;28;20042;-72
2021/05/17 04:34:00;;;;;;;2.72;1.00;;;;;;;7.52;83.81;94647.72;5018150;28;20045;-71
2021/05/17 04:36:28;;;;;;;1.95;0.90;;;;;;;7.53;84.21;94645.88;5021453;28;20041;-71
2021/05/17 04:38:53;;;;;;;3.78;1.00;;;;;;;7.54;83.19;94643.00;5001633;28;20058;-71
2021/05/17 04:41:19;;;;;;;2.38;1.00;;;;;;;7.56;83.59;94645.34;5011570;28;20042;-71
2021/05/17 04:43:44;;;;;;;4.15;1.65;;;;;;;7.56;82.81;94645.34;5015807;28;20038;-72
2021/05/17 04:46:10;;;;;;;2.88;0.90;;;;;;;7.60;82.34;94641.13;5006314;28;20069;-71
2021/05/17 04:48:36;;;;;;;2.60;1.00;;;;;;;7.61;82.45;94647.91;4995878;28;20510;-72
2021/05/17 04:51:01;;;;;;;3.22;1.30;;;;;;;7.58;82.55;94643.22;5009267;28;20068;-71
2021/05/17 04:53:27;;;;;;;4.07;1.25;;;;;;;7.59;81.66;94634.34;5012654;28;20070;-71
2021/05/17 04:55:52;;;;;;;3.25;1.13;;;;;;;7.60;82.18;94647.16;5008210;28;20038;-72
2021/05/17 04:58:18;;;;;;;3.13;1.40;;;;;;;7.58;81.95;94645.84;5011816;28;20104;-72
2021/05/17 05:00:43;;;;;;;3.58;1.20;;;;;;;7.57;82.24;94639.03;5011200;28;20049;-72
2021/05/17 05:03:09;;;;;;;5.95;1.27;;;;;;;7.65;81.15;94643.72;5017502;28;20057;-71
2021/05/17 05:05:34;;;;;;;6.55;1.17;;;;;;;7.56;82.34;94645.34;5014283;28;20077;-72
2021/05/17 05:08:00;;;;;;;3.78;1.17;;;;;;;7.67;81.84;94640.81;5009093;28;20409;-71
2021/05/17 05:10:25;;;;;;;3.53;1.10;;;;;;;7.70;80.73;94651.56;4997688;28;20408;-72
2021/05/17 05:12:51;;;;;;;2.85;1.08;;;;;;;7.66;80.21;94654.97;5012072;28;20067;-71
2021/05/17 05:15:16;;;;;;;2.15;1.10;;;;;;;7.60;80.91;94652.38;5016750;28;20044;-72
2021/05/17 05:17:42;;;;;;;2.97;1.08;;;;;;;7.58;80.50;94654.47;5007098;28;20038;-72
2021/05/17 05:20:08;;;;;;;3.35;1.10;;;;;;;7.58;80.04;94653.69;5002240;28;20054;-71
2021/05/17 05:22:35;;;;;;;5.80;1.33;;;;;;;7.63;79.37;94656.31;4999045;28;20034;-71
2021/05/17 05:25:01;;;;;;;4.28;1.27;;;;;;;7.68;80.46;94652.88;5019656;28;21414;-72
2021/05/17 05:27:49;;;;;;;6.45;1.23;;;;;;;7.66;79.46;94655.75;5003427;28;20572;-71
2021/05/17 05:33:09;;;;;;;3.45;0.98;;;;;;;7.73;79.66;94661.47;5011217;28;20033;-72
2021/05/17 05:35:31;;;;;;;3.85;1.10;;;;;;;7.79;79.29;94665.63;5010268;28;20046;-72
2021/05/17 05:37:56;;;;;;;4.70;1.27;;;;;;;7.88;79.21;94662.44;5010812;28;20526;-71
2021/05/17 05:40:22;;;;;;;5.20;1.85;;;;;;;7.93;79.09;94659.75;5003806;28;20089;-71
2021/05/17 05:42:48;;;;;;;4.85;1.30;;;;;;;7.98;78.29;94667.59;5008714;28;20045;-71
2021/05/17 05:45:13;;;;;;;7.00;1.65;;;;;;;8.02;77.89;94673.09;5010489;28;20038;-72
2021/05/17 05:47:39;;;;;;;5.18;1.35;;;;;;;8.02;79.50;94668.63;5006690;28;20488;-71
2021/05/17 05:50:05;;;;;;;5.15;1.50;;;;;;;8.09;78.09;94674.34;5010869;28;20054;-71
2021/05/17 05:52:31;;;;;;;2.80;1.23;;;;;;;8.32;77.90;94682.56;5010602;28;20123;-71
2021/05/17 05:55:02;;;;;;;4.55;1.35;;;;;;;8.56;75.86;94666.09;5011687;28;20111;-72
2021/05/17 05:57:29;;;;;;;4.28;1.70;;;;;;;8.87;75.45;94676.31;5021852;28;20048;-71
2021/05/17 05:59:54;;;;;;;4.43;1.60;;;;;;;9.04;76.00;94673.22;5011404;28;20034;-72
2021/05/17 06:02:19;;;;;;;3.60;1.10;;;;;;;9.02;74.07;94678.75;5008235;28;20036;-72
2021/05/17 06:04:45;;;;;;;5.80;1.40;;;;;;;8.97;74.32;94676.19;5009301;28;20041;-72
2021/05/17 06:07:11;;;;;;;4.28;1.25;;;;;;;8.93;74.94;94685.69;5010389;28;20046;-72
2021/05/17 06:09:36;;;;;;;2.75;1.20;;;;;;;9.01;74.56;94693.72;5005058;28;20467;-72
2021/05/17 06:12:02;;;;;;;5.07;1.45;;;;;;;9.01;74.42;94698.22;5010012;28;20054;-72
2021/05/17 06:14:29;;;;;;;3.22;1.13;;;;;;;9.06;74.66;94694.75;5009439;28;20045;-72
2021/05/17 06:16:54;;;;;;;4.85;1.10;;;;;;;9.16;75.95;94697.25;5006738;28;20061;-72
2021/05/17 06:19:21;;;;;;;5.22;1.48;;;;;;;9.19;76.46;94704.56;5010123;28;20411;-70
2021/05/17 06:21:47;;;;;;;2.95;1.23;;;;;;;9.19;76.17;94702.72;5010100;28;20038;-70
2021/05/17 06:24:14;;;;;;;4.10;1.60;;;;;;;9.13;77.92;94701.22;5009698;28;20572;-70
2021/05/17 06:26:40;;;;;;;2.83;1.10;;;;;;;9.08;77.62;94703.91;5015796;28;20049;-70
2021/05/17 06:29:06;;;;;;;5.07;1.50;;;;;;;9.12;78.05;94704.91;5010560;28;20113;-70
2021/05/17 06:31:31;;;;;;;2.83;1.20;;;;;;;9.21;77.39;94704.28;5002734;28;20041;-70
2021/05/17 06:33:57;;;;;;;2.65;1.00;;;;;;;9.34;74.99;94703.63;4995671;28;20455;-70
2021/05/17 06:36:23;;;;;;;5.78;1.40;;;;;;;9.45;75.41;94702.44;5002312;28;20125;-71
2021/05/17 06:38:50;;;;;;;3.20;1.05;;;;;;;9.65;75.13;94695.34;4997197;28;20065;-70
2021/05/17 06:41:16;;;;;;;3.80;1.17;;;;;;;9.64;73.71;94699.03;4997249;28;20053;-69
2021/05/17 06:43:42;;;;;;;2.85;1.10;;;;;;;9.70;73.92;94713.69;5008442;28;20459;-71
2021/05/17 06:46:09;;;;;;;2.80;0.95;;;;;;;9.59;73.68;94713.00;5022031;28;20041;-71
2021/05/17 06:48:42;;;;;;;2.92;1.10;;;;;;;9.77;72.83;94714.13;5008759;28;20054;-71
2021/05/17 06:51:14;;;;;;;3.97;1.30;;;;;;;9.93;72.37;94706.00;5007916;28;20096;-71
2021/05/17 06:53:41;;;;;;;2.47;1.17;;;;;;;10.04;71.37;94702.16;5005747;28;20057;-70
2021/05/17 06:56:11;;;;;;;3.53;1.15;;;;;;;10.15;70.57;94705.44;5006387;28;20053;-70
2021/05/17 06:58:52;;;;;;;4.65;1.20;;;;;;;10.26;69.18;94703.41;4996987;28;20038;-71
2021/05/17 07:01:18;;;;;;;3.40;1.08;;;;;;;10.41;69.53;94705.84;5009473;28;20512;-72
2021/05/17 07:03:44;;;;;;;8.15;1.67;;;;;;;10.47;68.58;94704.69;5010206;28;20045;-71
2021/05/17 07:06:11;;;;;;;3.08;1.30;;;;;;;10.61;67.72;94706.59;5007849;28;20543;-71
2021/05/17 07:11:41;;;;;;;4.97;1.10;;;;;;;10.85;67.66;94706.47;5013191;28;20073;-72
2021/05/17 07:14:06;;;;;;;3.20;1.20;;;;;;;10.75;67.05;94715.31;5012525;28;20052;-69
2021/05/17 07:16:32;;;;;;;3.20;1.13;;;;;;;10.75;69.35;94717.94;5015172;28;20038;-72
2021/05/17 07:18:58;;;;;;;2.08;1.10;;;;;;;10.69;69.81;94711.97;5004453;28;20076;-71
2021/05/17 07:24:08;;;;;;;1.43;1.00;;;;;;;10.42;70.58;94717.94;5013321;28;20042;-71
2021/05/17 07:26:34;;;;;;;1.70;0.88;;;;;;;10.35;69.51;94722.78;5006060;28;20401;-71
2021/05/17 07:29:02;;;;;;;3.30;1.27;;;;;;;10.25;69.30;94709.78;5005986;28;20054;-71
2021/05/17 07:31:28;;;;;;;2.63;1.10;;;;;;;10.27;69.44;94711.06;5007306;28;20045;-71
2021/05/17 07:33:53;;;;;;;3.83;1.20;;;;;;;10.32;70.76;94707.56;5012446;28;20431;-71
2021/05/17 07:36:19;;;;;;;4.78;1.27;;;;;;;10.28;70.49;94711.81;5012438;28;20206;-71
2021/05/17 07:38:45;;;;;;;3.13;1.10;;;;;;;10.17;69.58;94705.91;5007242;28;20049;-71
2021/05/17 07:41:11;;;;;;;4.22;1.17;;;;;;;10.20;68.45;94711.41;5012120;28;20042;-72
2021/05/17 07:43:38;;;;;;;3.65;1.00;;;;;;;10.21;68.61;94701.66;5014091;28;20042;-71
2021/05/17 07:46:03;;;;;;;3.28;1.08;;;;;;;10.34;69.63;94721.22;5011993;28;20483;-71
2021/05/17 07:48:29;;;;;;;4.38;1.00;;;;;;;10.52;68.13;94717.00;5008773;28;20041;-71
2021/05/17 07:50:54;;;;;;;4.45;1.20;;;;;;;10.56;68.60;94724.03;5012985;28;20419;-71
2021/05/17 07:53:20;;;;;;;3.60;1.17;;;;;;;10.57;67.04;94720.34;5014176;28;20459;-71
2021/05/17 07:55:51;;;;;;;2.10;0.80;;;;;;;10.76;66.59;94722.13;5026834;28;20065;-71
2021/05/17 07:58:16;;;;;;;1.73;1.40;;;;;;;10.81;64.73;94714.13;5004427;28;20083;-71
2021/05/17 08:00:42;;;;;;;4.40;1.40;;;;;;;10.96;67.19;94725.47;4996679;28;20042;-71
2021/05/17 08:03:07;;;;;;;3.58;1.45;;;;;;;11.07;65.58;94721.59;5012595;28;20053;-70
2021/05/17 08:05:33;;;;;;;3.28;1.20;;;;;;;11.15;66.34;94730.66;5020047;28;20044;-70
2021/05/17 08:07:59;;;;;;;2.95;1.10;;;;;;;11.12;64.07;94734.66;5015233;28;21760;-71
2021/05/17 08:10:25;;;;;;;3.83;1.10;;;;;;;11.46;64.07;94736.13;5011727;28;20442;-70
2021/05/17 08:12:51;;;;;;;3.63;1.15;;;;;;;11.70;63.54;94738.56;5014003;28;20082;-71
2021/05/17 08:15:16;;;;;;;1.88;1.00;;;;;;;11.53;63.17;94728.63;5023151;28;20041;-71
2021/05/17 08:17:42;;;;;;;2.28;0.90;;;;;;;11.09;63.76;94736.03;5007359;28;20063;-71
2021/05/17 08:20:08;;;;;;;3.65;1.25;;;;;;;11.06;63.82;94733.19;5006509;28;20045;-71
2021/05/17 08:22:35;;;;;;;2.08;0.90;;;;;;;11.13;64.46;94741.47;5004991;28;20121;-70
2021/05/17 08:25:05;;;;;;;6.78;0.95;;;;;;;10.94;64.11;94743.41;5009780;28;20180;-71
2021/05/17 08:27:31;;;;;;;2.92;0.90;;;;;;;11.05;65.33;94734.28;5012088;28;20038;-71
2021/05/17 08:29:56;;;;;;;2.58;0.90;;;;;;;10.98;66.04;94744.41;5012380;28;20466;-71
2021/05/17 08:32:22;;;;;;;1.58;0.80;;;;;;;11.18;67.15;94749.31;4993880;28;20050;-70
2021/05/17 08:34:47;;;;;;;1.25;0.82;;;;;;;11.12;66.33;94750.47;5016979;28;20046;-70
2021/05/17 08:37:13;;;;;;;2.63;0.75;;;;;;;11.29;64.28;94743.84;5010968;28;20033;-70
2021/05/17 08:39:40;;;;;;;1.75;0.77;;;;;;;11.39;62.22;94748.91;5006426;28;20034;-71
2021/05/17 08:42:06;;;;;;;1.02;0.88;;;;;;;11.71;61.69;94757.78;5008282;28;20037;-70
2021/05/17 08:44:35;;;;;;;2.95;0.80;;;;;;;11.66;60.20;94748.13;5016936;28;20034;-70
2021/05/17 08:47:01;;;;;;;1.63;0.80;;;;;;;11.72;60.40;94743.53;5012723;28;20050;-70
2021/05/17 08:49:26;;;;;;;4.20;1.00;;;;;;;12.01;60.73;94747.72;5009604;28;20038;-70
2021/05/17 08:51:52;;;;;;;2.75;0.90;;;;;;;11.89;62.04;94741.06;5019580;28;20108;-70
2021/05/17 08:54:18;;;;;;;2.45;0.90;;;;;;;11.87;58.99;94753.78;5011872;28;20046;-70
2021/05/17 08:56:47;;;;;;;0.85;0.70;;;;;;;11.48;59.67;94755.06;5003924;28;20042;-70
2021/05/17 08:59:15;;;;;;;1.13;0.52;;;;;;;11.37;60.45;94751.06;5011679;28;20042;-70
2021/05/17 09:01:42;;;;;;;0.70;0.60;;;;;;;11.24;60.82;94742.84;5011990;28;20037;-70
2021/05/17 09:04:13;;;;;;;2.67;0.50;;;;;;;11.26;59.74;94746.00;4996859;28;20112;-70
2021/05/17 09:06:53;;;;;;;2.28;1.02;;;;;;;11.53;61.18;94749.69;5011580;28;20042;-70
2021/05/17 09:09:34;;;;;;;1.55;0.57;;;;;;;11.80;59.13;94748.13;4999769;28;20096;-70
2021/05/17 09:12:00;;;;;;;2.80;0.68;;;;;;;11.81;60.99;94754.97;5021758;28;20050;-70
2021/05/17 09:14:27;;;;;;;3.38;0.85;;;;;;;11.77;59.95;94753.97;4997479;28;20055;-70
2021/05/17 09:17:02;;;;;;;1.13;0.60;;;;;;;11.77;58.72;94748.72;5009030;28;20045;-70
2021/05/17 09:19:29;;;;;;;1.48;0.80;;;;;;;11.87;59.27;94745.84;5018913;28;20087;-70
2021/05/17 09:22:06;;;;;;;0.68;0.50;;;;;;;11.59;59.91;94759.06;5012541;28;20058;-69
2021/05/17 09:24:33;;;;;;;2.60;1.05;;;;;;;11.59;60.05;94751.16;4996644;28;20034;-70
2021/05/17 09:26:59;;;;;;;4.50;1.02;;;;;;;11.70;59.07;94758.88;5010583;28;20041;-71
2021/05/17 09:29:26;;;;;;;0.95;0.57;;;;;;;11.79;59.70;94760.53;5017771;28;20442;-70
2021/05/17 09:31:51;;;;;;;1.40;0.50;;;;;;;11.89;57.57;94748.97;5014379;28;20038;-70
2021/05/17 09:34:18;;;;;;;2.10;0.70;;;;;;;12.35;56.90;94752.50;4994501;28;20504;-70
2021/05/17 09:36:44;;;;;;;1.77;0.82;;;;;;;12.35;56.39;94747.22;5006910;28;20096;-71
2021/05/17 09:39:15;;;;;;;1.83;0.80;;;;;;;12.56;56.85;94747.53;5008561;28;20037;-70
2021/05/17 09:41:43;;;;;;;0.98;0.70;;;;;;;12.77;56.30;94752.31;5014451;28;20393;-70
2021/05/17 09:44:14;;;;;;;2.80;0.80;;;;;;;12.64;55.50;94754.75;5011263;28;20518;-70
2021/05/17 09:46:59;;;;;;;4.05;1.17;;;;;;;12.80;54.93;94757.78;5010421;28;20049;-71
2021/05/17 09:49:50;;;;;;;1.45;0.73;;;;;;;12.96;54.44;94754.78;4996791;28;20113;-70
2021/05/17 09:52:23;;;;;;;1.27;0.68;;;;;;;13.22;53.31;94762.06;5009552;28;20046;-70
2021/05/17 09:55:02;;;;;;;1.38;0.75;;;;;;;13.17;52.60;94744.44;5011125;28;20034;-71
2021/05/17 09:57:41;;;;;;;2.80;0.82;;;;;;;13.22;53.81;94762.84;5008991;28;20045;-71
2021/05/17 10:00:16;;;;;;;2.15;1.10;;;;;;;13.04;52.37;94761.19;5010708;28;20053;-72
2021/05/17 10:02:48;;;;;;;1.17;0.90;;;;;;;13.09;53.79;94748.63;5007611;28;20049;-70
2021/05/17 10:05:15;;;;;;;1.15;0.80;;;;;;;13.42;52.49;94771.31;5014478;28;20551;-69
2021/05/17 10:07:44;;;;;;;1.67;0.98;;;;;;;13.16;53.17;94758.78;5009961;28;20085;-70
2021/05/17 10:10:12;;;;;;;0.90;0.80;;;;;;;13.12;52.80;94757.81;5010423;28;20489;-70
2021/05/17 10:12:38;;;;;;;1.75;0.80;;;;;;;12.86;54.88;94766.38;5009820;28;20511;-69
2021/05/17 10:15:06;;;;;;;2.13;1.02;;;;;;;12.97;54.09;94757.13;5009582;28;20042;-70
2021/05/17 10:17:35;;;;;;;3.40;0.88;;;;;;;12.85;54.07;94751.59;4998391;28;20039;-70
2021/05/17 10:20:10;;;;;;;1.05;0.82;;;;;;;12.57;54.03;94764.94;5022620;28;20045;-73
2021/05/17 10:22:36;;;;;;;1.60;0.68;;;;;;;13.25;53.41;94759.56;5009668;28;20033;-71
2021/05/17 10:25:05;;;;;;;1.55;0.82;;;;;;;13.99;51.88;94758.13;5004003;28;20515;-72
2021/05/17 10:27:31;;;;;;;3.58;1.00;;;;;;;14.44;49.43;94757.06;5010534;28;20042;-70
2021/05/17 10:30:05;;;;;;;2.17;1.13;;;;;;;15.51;47.12;94748.56;5010160;28;20053;-71
2021/05/17 10:32:53;;;;;;;1.20;1.10;;;;;;;15.50;48.00;94747.00;5010878;28;20042;-72
2021/05/17 10:35:21;;;;;;;1.55;0.73;;;;;;;14.74;49.51;94754.59;5005880;28;20088;-71
2021/05/17 10:37:48;;;;;;;2.55;1.10;;;;;;;14.75;48.80;94745.53;5008076;28;20049;-71
2021/05/17 10:40:39;;;;;;;2.38;1.30;;;;;;;15.71;45.72;94750.50;5004065;28;20041;-70
2021/05/17 10:43:15;;;;;;;1.10;1.00;;;;;;;16.70;45.28;94737.78;5011140;28;20045;-70
2021/05/17 10:48:23;;;;;;;1.88;1.30;;;;;;;15.20;46.46;94747.75;5014318;28;20048;-70
2021/05/17 10:51:16;;;;;;;1.23;1.13;;;;;;;16.84;43.52;94747.34;5014664;28;20420;-70
2021/05/17 10:53:45;;;;;;;1.75;1.17;;;;;;;16.68;44.93;94734.72;5012395;28;20037;-71
2021/05/17 10:56:15;;;;;;;1.85;1.00;;;;;;;16.32;43.92;94738.75;5012341;28;20030;-71
2021/05/17 11:02:11;;;;;;;2.28;1.10;;;;;;;17.26;41.89;94736.63;4995479;28;20117;-70
2021/05/17 11:04:38;;;;;;;3.22;1.52;;;;;;;16.69;42.29;94762.81;5001256;28;20045;-71
2021/05/17 11:07:47;;;;;;;1.85;0.95;;;;;;;16.48;43.58;94746.91;5009637;28;20454;-70
2021/05/17 11:10:12;;;;;;;1.20;0.98;;;;;;;15.42;45.25;94746.72;5040809;28;20060;-70
2021/05/17 11:12:40;;;;;;;3.10;1.20;;;;;;;16.00;43.66;94743.66;5031879;28;20045;-70
2021/05/17 11:15:15;;;;;;;1.60;1.00;;;;;;;15.75;45.29;94754.06;5020971;28;20491;-70
2021/05/17 11:18:01;;;;;;;1.17;0.93;;;;;;;16.38;45.52;94757.94;4997575;28;20266;-70
2021/05/17 11:23:06;;;;;;;1.55;0.80;;;;;;;15.01;45.99;94753.44;5014511;28;20061;-70
2021/05/17 11:26:16;;;;;;;1.08;0.90;;;;;;;15.05;45.23;94762.28;5009733;28;20080;-68
2021/05/17 11:28:42;;;;;;;1.20;0.93;;;;;;;15.51;45.20;94748.56;5005968;28;20092;-70
2021/05/17 11:31:16;;;;;;;1.27;0.90;;;;;;;14.49;45.73;94753.47;5013475;28;20420;-69
2021/05/17 11:33:48;;;;;;;4.40;1.00;;;;;;;14.26;46.09;94766.84;5013345;28;20052;-69
2021/05/17 11:36:38;;;;;;;1.20;1.10;;;;;;;16.39;41.46;94760.25;5011346;28;20054;-71
2021/05/17 11:39:16;;;;;;;1.20;0.90;;;;;;;17.82;38.56;94762.72;5004397;28;20073;-71
2021/05/17 11:41:57;;;;;;;1.30;1.02;;;;;;;17.51;38.66;94757.94;5017754;28;20042;-69
2021/05/17 11:44:24;;;;;;;1.23;0.85;;;;;;;15.72;42.52;94749.41;5013764;28;20048;-69
2021/05/17 11:46:54;;;;;;;2.38;1.10;;;;;;;16.42;41.57;94748.97;5009580;28;20042;-70
2021/05/17 11:49:22;;;;;;;2.35;0.50;;;;;;;16.11;41.50;94750.13;5012918;28;20041;-70
2021/05/17 11:51:56;;;;;;;3.05;0.90;;;;;;;15.28;43.04;94756.78;5013584;28;20499;-71
2021/05/17 11:54:23;;;;;;;2.88;1.20;;;;;;;16.87;42.31;94752.03;5013271;28;20042;-70
2021/05/17 11:56:54;;;;;;;0.57;0.57;;;;;;;16.75;40.05;94756.19;4991619;28;20117;-71
2021/05/17 11:59:25;;;;;;;0.93;0.70;;;;;;;15.45;43.08;94755.16;5004658;28;20052;-71
2021/05/17 12:01:54;;;;;;;0.95;0.88;;;;;;;16.28;42.33;94751.13;5012027;28;20400;-71
2021/05/17 12:04:23;;;;;;;1.00;1.00;;;;;;;17.48;40.26;94748.72;4997920;28;20081;-70
2021/05/17 12:06:56;;;;;;;1.00;0.63;;;;;;;16.24;43.76;94755.53;5005793;28;20038;-69
2021/05/17 12:09:29;;;;;;;3.15;1.13;;;;;;;16.31;43.74;94753.13;5001794;28;20120;-70
2021/05/17 12:11:55;;;;;;;1.92;1.40;;;;;;;19.03;39.31;94763.88;5012098;28;20096;-70
2021/05/17 12:14:20;;;;;;;2.88;1.30;;;;;;;18.97;37.64;94755.34;5012812;28;20065;-69